createdAt,value
2023-03-10T00:00:54.142Z,98116.41
2023-03-10T00:03:23.558Z,98115.13
2023-03-10T00:05:55.727Z,98107.03
2023-03-10T00:08:27.140Z,98098.28
2023-03-10T00:11:06.887Z,98092.22
2023-03-10T00:13:44.175Z,98090.50
2023-03-10T00:16:20.210Z,98089.16
2023-03-10T00:18:51.127Z,98085.97
2023-03-10T00:21:22.382Z,98091.13
2023-03-10T00:23:53.144Z,98087.91
2023-03-10T00:26:30.746Z,98091.41
2023-03-10T00:29:04.931Z,98071.78
2023-03-10T00:31:43.285Z,98079.66
2023-03-10T00:34:12.653Z,98079.44
2023-03-10T00:36:41.936Z,98071.16
2023-03-10T00:39:11.972Z,98067.34
2023-03-10T00:41:55.380Z,98059.00
2023-03-10T00:44:25.137Z,98043.66
2023-03-10T00:46:54.646Z,98055.13
2023-03-10T00:49:26.298Z,98039.50
2023-03-10T00:52:00.266Z,98027.66
2023-03-10T00:54:28.583Z,98037.38
2023-03-10T00:57:14.986Z,98026.13
2023-03-10T00:59:51.183Z,98023.16
2023-03-10T01:02:22.128Z,98020.91
2023-03-10T01:04:50.852Z,98021.41
2023-03-10T01:07:28.339Z,98009.09
2023-03-10T01:09:59.288Z,98003.94
2023-03-10T01:12:35.951Z,97997.09
2023-03-10T01:15:13.716Z,97992.38
2023-03-10T01:17:44.343Z,97986.91
2023-03-10T01:20:25.111Z,97986.38
2023-03-10T01:23:01.573Z,97973.78
2023-03-10T01:25:36.680Z,97969.53
2023-03-10T01:28:11.519Z,97973.06
2023-03-10T01:30:42.354Z,97970.19
2023-03-10T01:33:14.015Z,97966.19
2023-03-10T01:35:45.027Z,97959.28
2023-03-10T01:38:22.136Z,97962.16
2023-03-10T01:40:51.570Z,97959.19
2023-03-10T01:43:46.484Z,97958.59
2023-03-10T01:46:44.483Z,97943.88
2023-03-10T01:49:41.891Z,97935.75
2023-03-10T01:52:16.376Z,97926.47
2023-03-10T01:54:52.771Z,97926.22
2023-03-10T01:57:26.013Z,97917.59
2023-03-10T02:00:00.941Z,97908.38
2023-03-10T02:02:56.677Z,97914.06
2023-03-10T02:05:26.240Z,97908.88
2023-03-10T02:07:56.884Z,97917.72
2023-03-10T02:10:28.581Z,97903.47
2023-03-10T02:13:06.476Z,97894.81
2023-03-10T02:15:43.014Z,97890.09
2023-03-10T02:18:14.573Z,97880.69
2023-03-10T02:20:51.360Z,97882.75
2023-03-10T02:23:26.796Z,97888.56
2023-03-10T02:25:58.822Z,97874.00
2023-03-10T02:28:35.690Z,97867.19
2023-03-10T02:31:07.648Z,97864.63
2023-03-10T02:33:39.512Z,97854.78
2023-03-10T02:36:17.607Z,97858.00
2023-03-10T02:38:50.730Z,97857.91
2023-03-10T02:41:22.921Z,97847.78
2023-03-10T02:44:10.468Z,97842.06
2023-03-10T02:46:39.905Z,97838.69
2023-03-10T02:49:19.897Z,97832.63
2023-03-10T02:51:50.787Z,97829.53
2023-03-10T02:54:25.424Z,97825.00
2023-03-10T02:57:07.516Z,97804.25
2023-03-10T02:59:58.221Z,97816.69
2023-03-10T03:02:29.659Z,97813.16
2023-03-10T03:05:00.463Z,97816.00
2023-03-10T03:07:32.183Z,97817.47
2023-03-10T03:10:07.153Z,97805.03
2023-03-10T03:12:37.912Z,97806.72
2023-03-10T03:15:32.909Z,97790.81
2023-03-10T03:18:02.386Z,97795.31
2023-03-10T03:20:38.209Z,97795.16
2023-03-10T03:23:10.256Z,97789.28
2023-03-10T03:25:41.715Z,97793.25
2023-03-10T03:28:14.424Z,97790.69
2023-03-10T03:30:47.534Z,97785.13
2023-03-10T03:33:20.893Z,97773.19
2023-03-10T03:35:53.432Z,97768.09
2023-03-10T03:38:30.099Z,97776.94
2023-03-10T03:41:01.536Z,97770.34
2023-03-10T03:43:34.106Z,97749.19
2023-03-10T03:46:05.770Z,97760.16
2023-03-10T03:48:35.460Z,97765.50
2023-03-10T03:51:08.170Z,97748.75
2023-03-10T03:53:47.801Z,97735.84
2023-03-10T03:56:18.089Z,97724.94
2023-03-10T03:58:50.688Z,97712.94
2023-03-10T04:01:36.632Z,97706.97
2023-03-10T04:04:15.245Z,97704.53
2023-03-10T04:06:56.383Z,97686.81
2023-03-10T04:09:25.028Z,97695.75
2023-03-10T04:11:56.842Z,97689.63
2023-03-10T04:14:26.916Z,97689.94
2023-03-10T04:17:04.715Z,97673.47
2023-03-10T04:19:33.860Z,97663.50
2023-03-10T04:22:11.732Z,97658.53
2023-03-10T04:24:44.407Z,97647.63
2023-03-10T04:27:21.299Z,97650.22
2023-03-10T04:29:53.737Z,97653.75
2023-03-10T04:32:31.098Z,97654.19
2023-03-10T04:35:03.367Z,97642.69
2023-03-10T04:37:31.507Z,97649.56
2023-03-10T04:40:03.507Z,97636.75
2023-03-10T04:42:31.901Z,97645.09
2023-03-10T04:45:03.313Z,97646.44
2023-03-10T04:47:35.526Z,97634.97
2023-03-10T04:50:05.424Z,97633.56
2023-03-10T04:52:36.458Z,97626.16
2023-03-10T04:55:16.084Z,97614.09
2023-03-10T04:57:47.915Z,97612.16
2023-03-10T05:00:29.157Z,97605.56
2023-03-10T05:03:06.022Z,97591.81
2023-03-10T05:05:38.427Z,97595.88
2023-03-10T05:08:07.529Z,97593.56
2023-03-10T05:10:39.647Z,97599.44
2023-03-10T05:13:12.220Z,97595.53
2023-03-10T05:15:44.143Z,97595.47
2023-03-10T05:18:19.748Z,97590.38
2023-03-10T05:21:01.208Z,97590.84
2023-03-10T05:23:35.018Z,97591.97
2023-03-10T05:26:07.475Z,97584.38
2023-03-10T05:28:37.184Z,97589.16
2023-03-10T05:31:26.494Z,97581.94
2023-03-10T05:34:04.868Z,97577.63
2023-03-10T05:36:33.462Z,97581.09
2023-03-10T05:39:13.602Z,97575.78
2023-03-10T05:41:49.574Z,97585.38
2023-03-10T05:44:22.051Z,97575.78
2023-03-10T05:46:50.971Z,97574.81
2023-03-10T05:49:23.303Z,97566.09
2023-03-10T05:51:56.448Z,97569.88
2023-03-10T05:54:27.429Z,97570.31
2023-03-10T05:56:59.082Z,97562.88
2023-03-10T05:59:33.268Z,97560.72
2023-03-10T06:02:05.149Z,97555.81
2023-03-10T06:04:39.940Z,97553.34
2023-03-10T06:07:23.065Z,97546.19
2023-03-10T06:10:02.704Z,97541.44
2023-03-10T06:12:36.144Z,97537.66
2023-03-10T06:15:07.286Z,97519.34
2023-03-10T06:17:40.175Z,97532.72
2023-03-10T06:20:17.549Z,97531.53
2023-03-10T06:22:49.101Z,97531.59
2023-03-10T06:25:20.545Z,97538.59
2023-03-10T06:27:50.105Z,97548.56
2023-03-10T06:30:33.323Z,97547.31
2023-03-10T06:33:10.314Z,97563.19
2023-03-10T06:35:44.400Z,97552.88
2023-03-10T06:38:20.529Z,97546.91
2023-03-10T06:40:51.356Z,97550.59
2023-03-10T06:43:21.101Z,97536.41
2023-03-10T06:45:56.001Z,97543.06
2023-03-10T06:48:26.586Z,97544.72
2023-03-10T06:50:57.090Z,97536.13
2023-03-10T06:53:27.095Z,97533.97
2023-03-10T06:56:00.726Z,97531.19
2023-03-10T06:58:31.521Z,97532.59
2023-03-10T07:01:13.998Z,97524.47
2023-03-10T07:03:46.450Z,97519.44
2023-03-10T07:06:29.778Z,97519.78
2023-03-10T07:09:01.360Z,97512.66
2023-03-10T07:11:29.511Z,97501.94
2023-03-10T07:14:05.631Z,97501.66
2023-03-10T07:16:44.594Z,97502.44
2023-03-10T07:19:13.050Z,97501.78
2023-03-10T07:21:49.758Z,97492.72
2023-03-10T07:24:22.040Z,97487.03
2023-03-10T07:26:50.555Z,97483.09
2023-03-10T07:29:21.163Z,97477.84
2023-03-10T07:31:52.710Z,97473.34
2023-03-10T07:34:26.362Z,97467.19
2023-03-10T07:37:17.686Z,97467.38
2023-03-10T07:39:48.632Z,97474.53
2023-03-10T07:42:18.643Z,97463.91
2023-03-10T07:44:48.459Z,97465.22
2023-03-10T07:47:20.521Z,97456.56
2023-03-10T07:50:01.616Z,97450.91
2023-03-10T07:52:40.871Z,97452.97
2023-03-10T07:55:09.924Z,97446.25
2023-03-10T07:57:39.157Z,97448.81
2023-03-10T08:00:10.512Z,97443.72
2023-03-10T08:02:44.120Z,97442.31
2023-03-10T08:05:17.051Z,97434.91
2023-03-10T08:07:58.861Z,97436.03
2023-03-10T08:10:30.447Z,97433.84
2023-03-10T08:13:07.248Z,97445.22
2023-03-10T08:15:37.792Z,97441.94
2023-03-10T08:18:11.137Z,97436.25
2023-03-10T08:20:47.628Z,97431.41
2023-03-10T08:23:32.432Z,97439.81
2023-03-10T08:26:11.851Z,97440.75
2023-03-10T08:28:42.202Z,97442.16
2023-03-10T08:31:13.532Z,97442.00
2023-03-10T08:33:44.129Z,97436.59
2023-03-10T08:36:21.505Z,97444.28
2023-03-10T08:38:56.855Z,97437.56
2023-03-10T08:41:37.270Z,97444.41
2023-03-10T08:44:08.021Z,97448.34
2023-03-10T08:46:39.324Z,97454.59
2023-03-10T08:49:19.523Z,97462.66
2023-03-10T08:51:49.867Z,97456.28
2023-03-10T08:54:22.872Z,97456.59
2023-03-10T08:56:54.198Z,97456.78
2023-03-10T08:59:29.185Z,97447.84
2023-03-10T09:02:01.892Z,97453.03
2023-03-10T09:04:31.559Z,97446.88
2023-03-10T09:07:00.214Z,97452.00
2023-03-10T09:09:35.696Z,97452.84
2023-03-10T09:12:09.001Z,97456.22
2023-03-10T09:14:42.172Z,97429.88
2023-03-10T09:17:24.856Z,97430.94
2023-03-10T09:19:55.657Z,97422.94
2023-03-10T09:22:27.744Z,97426.19
2023-03-10T09:25:04.517Z,97424.59
2023-03-10T09:27:41.713Z,97410.19
2023-03-10T09:30:14.158Z,97431.97
2023-03-10T09:32:44.980Z,97441.00
2023-03-10T09:35:18.035Z,97427.47
2023-03-10T09:37:49.774Z,97418.38
2023-03-10T09:40:25.515Z,97426.19
2023-03-10T09:43:08.472Z,97423.50
2023-03-10T09:45:41.713Z,97423.25
2023-03-10T09:48:27.884Z,97423.22
2023-03-10T09:51:04.528Z,97418.31
2023-03-10T09:53:49.786Z,97420.31
2023-03-10T09:56:29.727Z,97424.09
2023-03-10T09:59:13.579Z,97418.50
2023-03-10T10:01:48.085Z,97419.63
2023-03-10T10:04:29.527Z,97414.81
2023-03-10T10:07:16.727Z,97423.00
2023-03-10T10:09:48.509Z,97421.69
2023-03-10T10:12:26.369Z,97430.94
2023-03-10T10:15:03.808Z,97432.81
2023-03-10T10:17:56.397Z,97416.75
2023-03-10T10:20:36.728Z,97418.88
2023-03-10T10:23:16.481Z,97411.59
2023-03-10T10:25:50.296Z,97413.84
2023-03-10T10:28:37.409Z,97426.50
2023-03-10T10:31:18.720Z,97429.41
2023-03-10T10:34:20.086Z,97428.59
2023-03-10T10:36:57.781Z,97421.28
2023-03-10T10:39:31.570Z,97439.59
2023-03-10T10:42:18.342Z,97430.47
2023-03-10T10:44:54.797Z,97423.50
2023-03-10T10:47:32.539Z,97426.06
2023-03-10T10:50:29.437Z,97423.06
2023-03-10T10:53:36.715Z,97426.13
2023-03-10T10:56:08.797Z,97419.94
2023-03-10T10:58:42.185Z,97427.69
2023-03-10T11:01:21.308Z,97426.00
2023-03-10T11:04:05.667Z,97419.78
2023-03-10T11:06:38.307Z,97413.09
2023-03-10T11:09:09.125Z,97406.44
2023-03-10T11:11:48.212Z,97408.22
2023-03-10T11:14:39.996Z,97409.22
2023-03-10T11:17:26.533Z,97408.03
2023-03-10T11:20:10.105Z,97395.91
2023-03-10T11:22:43.583Z,97391.56
2023-03-10T11:25:41.095Z,97386.47
2023-03-10T11:28:38.122Z,97382.44
2023-03-10T11:31:27.836Z,97373.81
2023-03-10T11:34:13.095Z,97374.28
2023-03-10T11:36:55.962Z,97366.84
2023-03-10T11:39:33.877Z,97351.94
2023-03-10T11:42:16.021Z,97345.38
2023-03-10T11:44:54.175Z,97353.41
2023-03-10T11:47:39.607Z,97355.56
2023-03-10T11:50:27.005Z,97352.19
2023-03-10T11:53:08.391Z,97355.31
2023-03-10T11:55:38.678Z,97350.25
2023-03-10T11:58:18.562Z,97339.78
2023-03-10T12:00:56.684Z,97341.88
2023-03-10T12:03:40.673Z,97347.50
2023-03-10T12:06:16.230Z,97346.34
2023-03-10T12:08:55.831Z,97347.88
2023-03-10T12:11:31.806Z,97359.81
2023-03-10T12:14:02.258Z,97357.53
2023-03-10T12:16:33.954Z,97361.03
2023-03-10T12:19:05.641Z,97357.47
2023-03-10T12:21:36.128Z,97358.94
2023-03-10T12:24:06.419Z,97358.28
2023-03-10T12:27:05.761Z,97349.75
2023-03-10T12:29:40.910Z,97341.53
2023-03-10T12:32:43.672Z,97352.75
2023-03-10T12:35:50.816Z,97352.53
2023-03-10T12:38:46.518Z,97339.44
2023-03-10T12:41:47.229Z,97340.94
2023-03-10T12:44:44.469Z,97338.09
2023-03-10T12:47:39.625Z,97333.91
2023-03-10T12:50:24.128Z,97338.44
2023-03-10T12:52:59.856Z,97337.88
2023-03-10T12:55:37.264Z,97339.41
2023-03-10T12:58:22.810Z,97337.44
2023-03-10T13:00:55.326Z,97320.59
2023-03-10T13:03:43.933Z,97325.88
2023-03-10T13:06:23.641Z,97326.78
2023-03-10T13:08:55.896Z,97324.56
2023-03-10T13:11:34.869Z,97329.22
2023-03-10T13:14:07.026Z,97323.81
2023-03-10T13:16:38.068Z,97315.59
2023-03-10T13:19:15.608Z,97324.00
2023-03-10T13:21:53.204Z,97326.13
2023-03-10T13:24:27.704Z,97316.75
2023-03-10T13:27:11.610Z,97318.50
2023-03-10T13:29:47.653Z,97307.53
2023-03-10T13:32:29.408Z,97325.25
2023-03-10T13:35:00.444Z,97311.91
2023-03-10T13:37:32.302Z,97314.50
2023-03-10T13:40:13.596Z,97321.63
2023-03-10T13:42:44.811Z,97315.88
2023-03-10T13:45:24.528Z,97309.47
2023-03-10T13:47:55.279Z,97319.78
2023-03-10T13:50:28.863Z,97322.00
2023-03-10T13:53:00.249Z,97316.03
2023-03-10T13:55:33.372Z,97315.09
2023-03-10T13:58:09.666Z,97319.06
2023-03-10T14:00:47.408Z,97317.75
2023-03-10T14:03:18.398Z,97314.31
2023-03-10T14:05:50.323Z,97317.25
2023-03-10T14:08:22.812Z,97319.22
2023-03-10T14:10:55.092Z,97321.69
2023-03-10T14:13:44.805Z,97321.38
2023-03-10T14:16:20.624Z,97319.38
2023-03-10T14:18:51.762Z,97324.94
2023-03-10T14:21:58.550Z,97314.25
2023-03-10T14:24:30.927Z,97326.59
2023-03-10T14:27:01.862Z,97324.16
2023-03-10T14:29:32.787Z,97331.69
2023-03-10T14:32:06.812Z,97335.41
2023-03-10T14:34:37.735Z,97321.78
2023-03-10T14:37:09.374Z,97321.13
2023-03-10T14:39:37.999Z,97302.38
2023-03-10T14:42:15.481Z,97304.19
2023-03-10T14:44:55.391Z,97315.84
2023-03-10T14:47:27.149Z,97319.53
2023-03-10T14:50:03.880Z,97310.75
2023-03-10T14:52:32.749Z,97295.44
2023-03-10T14:55:04.477Z,97286.78
2023-03-10T14:57:36.663Z,97274.72
2023-03-10T15:00:15.666Z,97265.94
2023-03-10T15:02:44.792Z,97262.53
2023-03-10T15:05:18.719Z,97258.69
2023-03-10T15:08:01.268Z,97255.63
2023-03-10T15:10:35.666Z,97251.53
2023-03-10T15:13:05.058Z,97246.63
2023-03-10T15:15:43.804Z,97255.84
2023-03-10T15:18:24.237Z,97268.72
2023-03-10T15:20:55.388Z,97240.19
2023-03-10T15:23:31.909Z,97237.28
2023-03-10T15:26:12.165Z,97251.53
2023-03-10T15:28:44.944Z,97261.00
2023-03-10T15:31:28.413Z,97258.72
2023-03-10T15:34:02.676Z,97265.03
2023-03-10T15:36:32.418Z,97258.97
2023-03-10T15:39:00.933Z,97266.09
2023-03-10T15:41:45.625Z,97262.59
2023-03-10T15:44:17.404Z,97251.97
2023-03-10T15:46:53.341Z,97260.13
2023-03-10T15:49:26.025Z,97258.66
2023-03-10T15:52:03.106Z,97252.81
2023-03-10T15:54:46.046Z,97251.59
2023-03-10T15:57:15.466Z,97251.28
2023-03-10T15:59:54.219Z,97248.91
2023-03-10T16:02:26.992Z,97246.19
2023-03-10T16:04:58.167Z,97255.22
2023-03-10T16:07:30.504Z,97241.31
2023-03-10T16:09:59.930Z,97237.53
2023-03-10T16:12:36.272Z,97238.44
2023-03-10T16:15:09.375Z,97243.03
2023-03-10T16:17:43.930Z,97244.91
2023-03-10T16:20:21.814Z,97250.06
2023-03-10T16:22:53.674Z,97249.19
2023-03-10T16:25:26.957Z,97257.81
2023-03-10T16:28:04.593Z,97296.44
2023-03-10T16:30:42.474Z,97314.38
2023-03-10T16:33:17.152Z,97327.22
2023-03-10T16:35:47.802Z,97307.31
2023-03-10T16:41:03.913Z,97312.34
2023-03-10T16:43:47.524Z,97308.31
2023-03-10T16:46:22.739Z,97325.72
2023-03-10T16:49:07.734Z,97292.78
2023-03-10T16:51:40.041Z,97287.22
2023-03-10T16:54:11.313Z,97279.13
2023-03-10T16:56:49.503Z,97273.66
2023-03-10T16:59:25.367Z,97274.97
2023-03-10T17:01:56.203Z,97275.81
2023-03-10T17:04:36.206Z,97289.06
2023-03-10T17:07:11.820Z,97288.41
2023-03-10T17:09:48.363Z,97280.97
2023-03-10T17:12:24.241Z,97298.47
2023-03-10T17:14:57.844Z,97308.78
2023-03-10T17:17:30.239Z,97304.47
2023-03-10T17:20:16.661Z,97307.34
2023-03-10T17:22:48.411Z,97307.91
2023-03-10T17:25:24.192Z,97308.09
2023-03-10T17:27:53.997Z,97324.41
2023-03-10T17:30:29.347Z,97315.81
2023-03-10T17:33:10.533Z,97303.41
2023-03-10T17:35:59.455Z,97307.38
2023-03-10T17:38:31.333Z,97308.34
2023-03-10T17:41:04.802Z,97315.91
2023-03-10T17:43:45.641Z,97315.75
2023-03-10T17:46:29.651Z,97315.69
2023-03-10T17:49:07.965Z,97315.03
2023-03-10T17:51:47.451Z,97314.28
2023-03-10T17:54:24.561Z,97318.59
2023-03-10T17:56:53.839Z,97321.25
2023-03-10T17:59:39.513Z,97314.50
2023-03-10T18:02:26.551Z,97318.22
2023-03-10T18:05:08.989Z,97309.00
2023-03-10T18:07:55.290Z,97302.19
2023-03-10T18:10:25.193Z,97305.13
2023-03-10T18:12:55.974Z,97310.75
2023-03-10T18:15:25.643Z,97313.94
2023-03-10T18:18:19.735Z,97314.34
2023-03-10T18:21:07.532Z,97314.50
2023-03-10T18:23:43.908Z,97310.97
2023-03-10T18:26:24.310Z,97304.84
2023-03-10T18:29:09.251Z,97312.09
2023-03-10T18:32:04.616Z,97322.19
2023-03-10T18:34:39.149Z,97324.22
2023-03-10T18:37:09.278Z,97320.25
2023-03-10T18:40:01.745Z,97319.09
2023-03-10T18:42:48.009Z,97330.94
2023-03-10T18:45:31.680Z,97330.19
2023-03-10T18:48:04.683Z,97326.94
2023-03-10T18:50:43.181Z,97333.56
2023-03-10T18:53:24.095Z,97339.13
2023-03-10T18:56:08.593Z,97342.22
2023-03-10T18:58:39.993Z,97340.81
2023-03-10T19:01:20.564Z,97338.34
2023-03-10T19:03:55.331Z,97359.94
2023-03-10T19:06:35.852Z,97338.09
2023-03-10T19:09:10.039Z,97348.22
2023-03-10T19:11:44.024Z,97363.44
2023-03-10T19:14:17.157Z,97356.88
2023-03-10T19:16:50.350Z,97355.00
2023-03-10T19:19:34.177Z,97374.75
2023-03-10T19:22:24.388Z,97366.31
2023-03-10T19:24:55.484Z,97366.56
2023-03-10T19:27:43.410Z,97392.06
2023-03-10T19:30:28.068Z,97383.22
2023-03-10T19:32:58.797Z,97391.47
2023-03-10T19:35:30.161Z,97393.91
2023-03-10T19:38:00.921Z,97419.19
2023-03-10T19:40:32.369Z,97402.75
2023-03-10T19:46:12.725Z,97446.16
2023-03-10T19:48:51.295Z,97478.84
2023-03-10T19:51:24.895Z,97439.38
2023-03-10T19:54:04.372Z,97431.72
2023-03-10T19:56:37.084Z,97422.69
2023-03-10T19:59:25.726Z,97484.78
2023-03-10T20:02:03.046Z,97446.47
2023-03-10T20:04:34.809Z,97470.94
2023-03-10T20:07:07.547Z,97458.97
2023-03-10T20:09:38.500Z,97437.81
2023-03-10T20:12:20.666Z,97450.78
2023-03-10T20:14:59.180Z,97466.34
2023-03-10T20:17:39.214Z,97487.97
2023-03-10T20:20:20.771Z,97477.84
2023-03-10T20:23:01.954Z,97461.38
2023-03-10T20:25:41.319Z,97461.81
2023-03-10T20:28:21.645Z,97487.00
2023-03-10T20:31:12.167Z,97444.16
2023-03-10T20:33:58.861Z,97473.50
2023-03-10T20:36:34.355Z,97422.03
2023-03-10T20:39:06.694Z,97433.75
2023-03-10T20:41:45.056Z,97434.56
2023-03-10T20:44:28.833Z,97435.41
2023-03-10T20:47:14.372Z,97416.44
2023-03-10T20:49:48.571Z,97423.84
2023-03-10T20:52:26.449Z,97413.13
2023-03-10T20:54:59.568Z,97428.16
2023-03-10T20:57:29.793Z,97424.50
2023-03-10T21:00:07.143Z,97399.88
2023-03-10T21:02:45.608Z,97414.81
2023-03-10T21:05:20.053Z,97445.66
2023-03-10T21:07:50.173Z,97406.81
2023-03-10T21:10:28.083Z,97416.50
2023-03-10T21:13:13.691Z,97438.25
2023-03-10T21:15:45.470Z,97424.91
2023-03-10T21:18:22.759Z,97409.13
2023-03-10T21:21:06.033Z,97412.16
2023-03-10T21:23:53.634Z,97420.22
2023-03-10T21:26:24.083Z,97493.88
2023-03-10T21:28:54.194Z,97435.69
2023-03-10T21:31:24.966Z,97545.09
2023-03-10T21:34:09.939Z,97446.38
2023-03-10T21:36:40.678Z,97458.88
2023-03-10T21:39:19.391Z,97431.06
2023-03-10T21:41:50.560Z,97443.00
2023-03-10T21:44:23.778Z,97461.19
2023-03-10T21:47:05.869Z,97457.94
2023-03-10T21:49:55.780Z,97430.69
2023-03-10T21:52:30.688Z,97442.25
2023-03-10T21:55:02.906Z,97479.94
2023-03-10T21:57:35.865Z,97451.13
2023-03-10T22:00:09.454Z,97451.72
2023-03-10T22:02:41.353Z,97465.09
2023-03-10T22:05:22.787Z,97476.81
2023-03-10T22:07:55.902Z,97470.81
2023-03-10T22:10:25.376Z,97467.22
2023-03-10T22:12:54.239Z,97467.28
2023-03-10T22:15:33.197Z,97468.16
2023-03-10T22:18:02.501Z,97455.97
2023-03-10T22:20:49.304Z,97456.38
2023-03-10T22:23:20.858Z,97481.00
2023-03-10T22:26:00.757Z,97467.00
2023-03-10T22:28:30.864Z,97472.38
2023-03-10T22:31:02.113Z,97473.31
2023-03-10T22:33:39.821Z,97442.19
2023-03-10T22:36:15.880Z,97450.91
2023-03-10T22:38:46.975Z,97435.81
2023-03-10T22:41:20.921Z,97431.50
2023-03-10T22:43:51.641Z,97443.59
2023-03-10T22:46:20.348Z,97444.78
2023-03-10T22:48:50.241Z,97467.63
2023-03-10T22:51:34.873Z,97464.53
2023-03-10T22:54:07.610Z,97468.06
2023-03-10T22:56:38.911Z,97485.31
2023-03-10T22:59:12.846Z,97494.63
2023-03-10T23:01:44.263Z,97495.41
2023-03-10T23:04:16.968Z,97492.19
2023-03-10T23:06:49.692Z,97500.56
2023-03-10T23:09:21.276Z,97491.47
2023-03-10T23:11:52.974Z,97503.28
2023-03-10T23:14:22.257Z,97540.22
2023-03-10T23:16:53.620Z,97530.03
2023-03-10T23:19:23.270Z,97518.06
2023-03-10T23:22:01.239Z,97504.53
2023-03-10T23:24:33.289Z,97504.41
2023-03-10T23:27:04.732Z,97506.16
2023-03-10T23:29:36.742Z,97498.63
2023-03-10T23:32:06.112Z,97480.94
2023-03-10T23:34:40.210Z,97487.63
2023-03-10T23:37:23.851Z,97478.66
2023-03-10T23:39:55.770Z,97474.72
2023-03-10T23:42:24.402Z,97461.44
2023-03-10T23:44:57.081Z,97470.44
2023-03-10T23:47:26.374Z,97476.38
2023-03-10T23:50:06.763Z,97489.50
2023-03-10T23:52:39.244Z,97484.47
2023-03-10T23:55:09.638Z,97488.66
2023-03-10T23:57:38.761Z,97473.38
